createdAt,value
2018-09-29T00:00:50.752Z,0
2018-09-29T00:01:50.561Z,0
2018-09-29T00:02:50.364Z,0
2018-09-29T00:03:49.906Z,0
2018-09-29T00:04:49.230Z,0
2018-09-29T00:05:49.651Z,0
2018-09-29T00:06:50.006Z,0
2018-09-29T00:07:50.424Z,0
2018-09-29T00:08:49.734Z,0
2018-09-29T00:10:33.773Z,0
2018-09-29T00:11:34.732Z,0
2018-09-29T00:12:34.009Z,0
2018-09-29T00:13:34.361Z,0
2018-09-29T00:15:05.594Z,0
2018-09-29T00:16:05.944Z,0
2018-09-29T00:17:27.449Z,0
2018-09-29T00:18:27.941Z,0
2018-09-29T00:19:28.290Z,0
2018-09-29T00:20:27.402Z,0
2018-09-29T00:21:27.720Z,0
2018-09-29T00:22:28.257Z,0
2018-09-29T00:23:27.737Z,0
2018-09-29T01:08:33.420Z,0
2018-09-29T01:09:33.752Z,0
2018-09-29T01:10:33.969Z,0
2018-09-29T01:11:33.319Z,0
2018-09-29T01:12:33.766Z,0
2018-09-29T01:13:34.177Z,0
2018-09-29T01:14:33.290Z,0
2018-09-29T01:15:33.620Z,0
2018-09-29T01:16:33.899Z,0
2018-09-29T01:17:34.313Z,0
2018-09-29T01:18:33.651Z,0
2018-09-29T01:19:33.889Z,0
2018-09-29T01:20:34.196Z,0
2018-09-29T01:21:33.507Z,0
2018-09-29T01:22:33.804Z,0
2018-09-29T01:23:34.262Z,0
2018-09-29T01:24:33.531Z,0
2018-09-29T01:25:33.969Z,0
2018-09-29T01:26:34.229Z,0
2018-09-29T01:27:33.759Z,0
2018-09-29T01:28:34.125Z,0
2018-09-29T01:29:33.636Z,0
2018-09-29T01:30:33.791Z,0
2018-09-29T01:31:34.064Z,0
2018-09-29T01:32:33.513Z,0
2018-09-29T01:33:33.728Z,0
2018-09-29T01:34:34.108Z,0
2018-09-29T01:35:33.537Z,0
2018-09-29T01:36:33.791Z,0
2018-09-29T01:37:34.014Z,0
2018-09-29T01:38:33.498Z,0
2018-09-29T01:39:34.029Z,0
2018-09-29T01:40:33.571Z,0
2018-09-29T01:41:34.023Z,0
2018-09-29T01:42:33.237Z,0
2018-09-29T01:43:33.581Z,0
2018-09-29T01:44:33.804Z,0
2018-09-29T01:45:34.258Z,0
2018-09-29T01:46:33.746Z,0
2018-09-29T01:47:55.117Z,0
2018-09-29T01:48:55.745Z,0
2018-09-29T01:49:55.289Z,0
2018-09-29T01:50:55.949Z,0
2018-09-29T01:51:55.691Z,0
2018-09-29T01:52:56.373Z,0
2018-09-29T01:53:55.814Z,0
2018-09-29T01:54:55.262Z,0
2018-09-29T01:55:55.572Z,0
2018-09-29T01:56:55.768Z,0
2018-09-29T01:57:57.278Z,0
2018-09-29T01:58:55.574Z,0
2018-09-29T01:59:55.738Z,0
2018-09-29T02:00:55.369Z,0
2018-09-29T02:01:55.900Z,0
2018-09-29T02:02:55.324Z,0
2018-09-29T02:03:55.752Z,0
2018-09-29T02:04:55.062Z,0
2018-09-29T02:05:55.459Z,0
2018-09-29T02:06:55.839Z,0
2018-09-29T02:08:16.262Z,0
2018-09-29T02:09:16.843Z,0
2018-09-29T02:10:17.311Z,0
2018-09-29T02:11:17.020Z,0
2018-09-29T02:12:16.436Z,0
2018-09-29T02:13:38.379Z,0
2018-09-29T02:14:39.019Z,0
2018-09-29T02:15:38.762Z,0
2018-09-29T02:16:38.693Z,0
2018-09-29T02:17:39.536Z,0
2018-09-29T02:18:39.103Z,0
2018-09-29T02:19:38.720Z,0
2018-09-29T02:20:38.869Z,0
2018-09-29T02:21:39.129Z,0
2018-09-29T02:22:38.515Z,0
2018-09-29T02:23:38.797Z,0
2018-09-29T02:24:38.087Z,0
2018-09-29T02:25:38.286Z,0
2018-09-29T02:26:38.816Z,0
2018-09-29T02:27:39.133Z,0
2018-09-29T02:29:41.866Z,0
2018-09-29T02:30:42.054Z,0
2018-09-29T02:31:42.615Z,0
2018-09-29T02:32:42.096Z,0
2018-09-29T02:33:42.464Z,0
2018-09-29T02:34:41.841Z,0
2018-09-29T02:35:42.287Z,0
2018-09-29T02:37:03.835Z,0
2018-09-29T02:38:04.453Z,0
2018-09-29T02:39:05.637Z,0
2018-09-29T02:40:03.904Z,0
2018-09-29T02:41:04.339Z,0
2018-09-29T02:42:04.720Z,0
2018-09-29T02:43:04.290Z,0
2018-09-29T02:44:04.546Z,0
2018-09-29T02:45:26.075Z,0
2018-09-29T02:46:26.311Z,0
2018-09-29T02:47:26.798Z,0
2018-09-29T02:48:25.977Z,0
2018-09-29T02:49:26.119Z,0
2018-09-29T02:50:26.383Z,0
2018-09-29T02:51:26.715Z,0
2018-09-29T02:52:26.095Z,0
2018-09-29T02:53:26.285Z,0
2018-09-29T02:54:26.554Z,0
2018-09-29T02:55:26.015Z,0
2018-09-29T02:56:47.748Z,0
2018-09-29T02:57:47.966Z,0
2018-09-29T02:58:48.248Z,0
2018-09-29T02:59:48.317Z,0
2018-09-29T03:00:47.467Z,0
2018-09-29T03:01:47.812Z,0
2018-09-29T03:03:09.236Z,0
2018-09-29T03:04:30.810Z,0
2018-09-29T03:05:31.043Z,0
2018-09-29T03:06:31.453Z,0
2018-09-29T03:07:30.916Z,0
2018-09-29T03:08:31.372Z,0
2018-09-29T03:09:52.728Z,0
2018-09-29T03:10:53.186Z,0
2018-09-29T03:11:53.651Z,0
2018-09-29T03:12:52.953Z,0
2018-09-29T03:13:53.288Z,0
2018-09-29T03:14:53.806Z,0
2018-09-29T03:15:53.082Z,0
2018-09-29T03:16:53.317Z,0
2018-09-29T03:17:53.649Z,0
2018-09-29T03:18:52.781Z,0
2018-09-29T03:19:53.071Z,0
2018-09-29T03:20:53.548Z,0
2018-09-29T03:21:52.808Z,0
2018-09-29T03:22:53.228Z,0
2018-09-29T03:23:53.567Z,0
2018-09-29T03:24:53.064Z,0
2018-09-29T03:25:53.641Z,0
2018-09-29T03:26:52.985Z,0
2018-09-29T03:27:53.197Z,0
2018-09-29T03:28:53.474Z,0
2018-09-29T03:29:52.801Z,0
2018-09-29T03:30:53.073Z,0
2018-09-29T03:31:53.607Z,0
2018-09-29T03:32:53.282Z,0
2018-09-29T03:33:53.485Z,0
2018-09-29T03:34:52.827Z,0
2018-09-29T03:35:53.077Z,0
2018-09-29T03:37:14.312Z,0
2018-09-29T03:38:14.598Z,0
2018-09-29T03:39:14.989Z,0
2018-09-29T03:40:14.225Z,0
2018-09-29T03:41:14.572Z,0
2018-09-29T03:42:14.774Z,0
2018-09-29T03:43:15.209Z,0
2018-09-29T03:44:35.412Z,0
2018-09-29T03:45:36.059Z,0
2018-09-29T03:46:36.261Z,0
2018-09-29T03:47:35.573Z,0
2018-09-29T03:48:36.110Z,0
2018-09-29T03:49:35.462Z,0
2018-09-29T03:50:35.935Z,0
2018-09-29T03:51:36.230Z,0
2018-09-29T03:52:35.550Z,0
2018-09-29T03:53:35.766Z,0
2018-09-29T03:54:36.210Z,0
2018-09-29T03:55:35.516Z,0
2018-09-29T03:56:35.714Z,0
2018-09-29T03:57:36.109Z,0
2018-09-29T03:58:57.335Z,0
2018-09-29T04:00:18.633Z,0
2018-09-29T04:01:19.031Z,0
2018-09-29T04:03:01.488Z,0
2018-09-29T04:04:22.950Z,0
2018-09-29T04:05:23.349Z,0
2018-09-29T04:06:23.765Z,0
2018-09-29T04:07:24.082Z,0
2018-09-29T04:08:23.672Z,0
2018-09-29T04:09:23.138Z,0
2018-09-29T04:10:23.430Z,0
2018-09-29T04:11:24.309Z,0
2018-09-29T04:12:23.580Z,0
2018-09-29T04:13:24.070Z,0
2018-09-29T04:14:23.337Z,0
2018-09-29T04:15:23.753Z,0
2018-09-29T04:16:23.066Z,0
2018-09-29T04:17:23.550Z,0
2018-09-29T04:18:23.833Z,0
2018-09-29T04:19:22.943Z,0
2018-09-29T04:20:23.431Z,0
2018-09-29T04:21:23.756Z,0
2018-09-29T04:22:23.140Z,0
2018-09-29T04:23:23.282Z,0
2018-09-29T04:24:23.772Z,0
2018-09-29T04:25:23.147Z,0
2018-09-29T04:26:23.570Z,0
2018-09-29T04:27:23.793Z,0
2018-09-29T04:28:23.076Z,0
2018-09-29T04:29:23.565Z,0
2018-09-29T04:30:24.127Z,0
2018-09-29T04:31:23.399Z,0
2018-09-29T04:33:06.207Z,0
2018-09-29T04:34:06.505Z,0
2018-09-29T04:35:06.671Z,0
2018-09-29T04:36:06.974Z,0
2018-09-29T04:37:06.141Z,0
2018-09-29T04:38:06.457Z,0
2018-09-29T04:39:06.741Z,0
2018-09-29T04:40:06.092Z,0
2018-09-29T04:41:06.425Z,0
2018-09-29T04:42:06.835Z,0
2018-09-29T04:43:06.078Z,0
2018-09-29T04:44:06.240Z,0
2018-09-29T04:45:06.599Z,0
2018-09-29T04:46:06.912Z,0
2018-09-29T04:47:06.185Z,0
2018-09-29T04:48:27.584Z,0
2018-09-29T04:49:27.971Z,0
2018-09-29T04:50:28.307Z,0
2018-09-29T04:51:48.358Z,0
2018-09-29T04:52:48.501Z,0
2018-09-29T04:53:48.819Z,0
2018-09-29T04:55:02.759Z,0
2018-09-29T04:56:31.400Z,0
2018-09-29T04:57:31.460Z,0
2018-09-29T04:58:31.700Z,0
2018-09-29T04:59:32.060Z,0
2018-09-29T05:00:32.256Z,0
2018-09-29T05:01:31.508Z,0
2018-09-29T05:02:31.868Z,0
2018-09-29T05:03:32.295Z,0
2018-09-29T05:04:31.761Z,0
2018-09-29T05:05:32.035Z,0
2018-09-29T05:06:53.404Z,0
2018-09-29T05:08:14.667Z,0
2018-09-29T05:09:15.023Z,0
2018-09-29T05:10:15.284Z,0
2018-09-29T05:11:16.344Z,1
2018-09-29T05:12:37.108Z,1
2018-09-29T05:13:37.543Z,1
2018-09-29T05:14:37.901Z,1
2018-09-29T05:15:37.147Z,1
2018-09-29T05:16:37.687Z,2
2018-09-29T05:17:37.174Z,2
2018-09-29T05:18:37.366Z,2
2018-09-29T05:19:37.707Z,2
2018-09-29T05:20:37.887Z,2
2018-09-29T05:21:37.247Z,3
2018-09-29T05:22:37.538Z,3
2018-09-29T05:23:37.893Z,3
2018-09-29T05:24:37.920Z,3
2018-09-29T05:25:37.230Z,4
2018-09-29T05:26:37.720Z,4
2018-09-29T05:27:37.311Z,4
2018-09-29T05:28:37.702Z,5
2018-09-29T05:29:37.397Z,5
2018-09-29T05:30:37.986Z,6
2018-09-29T05:31:37.381Z,6
2018-09-29T05:33:01.094Z,7
2018-09-29T05:34:23.052Z,8
2018-09-29T05:35:22.353Z,9
2018-09-29T05:36:22.680Z,9
2018-09-29T05:37:44.610Z,10
2018-09-29T05:38:45.336Z,11
2018-09-29T05:39:44.674Z,11
2018-09-29T05:40:45.035Z,12
2018-09-29T05:41:44.640Z,13
2018-09-29T05:42:45.184Z,13
2018-09-29T05:43:44.814Z,14
2018-09-29T05:44:44.359Z,15
2018-09-29T05:45:44.743Z,15
2018-09-29T05:46:44.433Z,16
2018-09-29T05:47:44.985Z,17
2018-09-29T05:48:44.529Z,18
2018-09-29T05:49:45.202Z,19
2018-09-29T05:50:44.649Z,19
2018-09-29T05:51:45.081Z,20
2018-09-29T05:52:44.754Z,20
2018-09-29T05:53:44.486Z,21
2018-09-29T05:54:44.994Z,22
2018-09-29T05:56:06.005Z,23
2018-09-29T05:57:06.482Z,24
2018-09-29T05:58:06.499Z,25
2018-09-29T05:59:06.259Z,26
2018-09-29T06:00:06.823Z,27
2018-09-29T06:01:06.858Z,28
2018-09-29T06:02:06.243Z,28
2018-09-29T06:03:06.766Z,29
2018-09-29T06:04:06.490Z,29
2018-09-29T06:05:05.942Z,30
2018-09-29T06:06:27.404Z,30
2018-09-29T06:07:28.067Z,31
2018-09-29T06:08:28.568Z,32
2018-09-29T06:09:28.282Z,32
2018-09-29T06:10:49.474Z,32
2018-09-29T06:11:49.933Z,32
2018-09-29T06:13:33.575Z,32
2018-09-29T06:14:37.730Z,32
2018-09-29T06:15:34.211Z,32
2018-09-29T06:16:33.627Z,33
2018-09-29T06:17:34.066Z,34
2018-09-29T06:18:34.638Z,35
2018-09-29T06:19:34.292Z,36
2018-09-29T06:20:33.766Z,36
2018-09-29T06:21:34.302Z,37
2018-09-29T06:22:54.744Z,38
2018-09-29T06:23:55.301Z,39
2018-09-29T06:24:55.714Z,40
2018-09-29T06:26:16.173Z,40
2018-09-29T06:27:37.747Z,40
2018-09-29T06:28:38.307Z,40
2018-09-29T06:29:37.991Z,41
2018-09-29T06:30:38.575Z,43
2018-09-29T06:31:38.530Z,49
2018-09-29T06:32:38.024Z,56
2018-09-29T06:33:38.293Z,60
2018-09-29T06:34:40.801Z,66
2018-09-29T06:35:59.523Z,72
2018-09-29T06:36:59.803Z,77
2018-09-29T06:38:00.434Z,81
2018-09-29T06:39:00.019Z,84
2018-09-29T06:39:59.494Z,90
2018-09-29T06:41:21.170Z,94
2018-09-29T06:42:21.627Z,96
2018-09-29T06:43:21.926Z,94
2018-09-29T06:44:21.401Z,97
2018-09-29T06:45:21.859Z,97
2018-09-29T06:46:21.395Z,97
2018-09-29T06:47:21.858Z,96
2018-09-29T06:48:21.375Z,95
2018-09-29T06:49:21.594Z,97
2018-09-29T06:50:22.103Z,98
2018-09-29T06:51:21.810Z,99
2018-09-29T06:52:43.261Z,102
2018-09-29T06:53:43.940Z,105
2018-09-29T06:54:43.454Z,105
2018-09-29T06:55:44.242Z,106
2018-09-29T06:56:43.880Z,109
2018-09-29T06:57:43.478Z,109
2018-09-29T06:58:44.272Z,108
2018-09-29T06:59:43.765Z,108
2018-09-29T07:00:43.516Z,110
2018-09-29T07:01:44.042Z,111
2018-09-29T07:02:43.600Z,106
2018-09-29T07:03:44.173Z,113
2018-09-29T07:04:43.742Z,123
2018-09-29T07:05:44.241Z,128
2018-09-29T07:06:43.796Z,133
2018-09-29T07:07:43.410Z,136
2018-09-29T07:08:43.964Z,139
2018-09-29T07:09:43.664Z,144
2018-09-29T07:11:25.819Z,154
2018-09-29T07:12:26.563Z,156
2018-09-29T07:13:26.178Z,164
2018-09-29T07:14:26.699Z,177
2018-09-29T07:15:26.586Z,194
2018-09-29T07:16:26.408Z,187
2018-09-29T07:17:26.848Z,209
2018-09-29T07:18:26.509Z,224
2018-09-29T07:19:26.247Z,243
2018-09-29T07:20:26.874Z,249
2018-09-29T07:21:26.766Z,260
2018-09-29T07:22:26.258Z,277
2018-09-29T07:23:48.093Z,239
2018-09-29T07:24:48.700Z,219
2018-09-29T07:26:09.327Z,210
2018-09-29T07:27:31.483Z,186
2018-09-29T07:29:36.171Z,183
2018-09-29T07:30:36.774Z,181
2018-09-29T07:31:36.478Z,184
2018-09-29T07:32:37.185Z,183
2018-09-29T07:33:58.251Z,207
2018-09-29T07:34:59.114Z,250
2018-09-29T07:35:58.837Z,263
2018-09-29T07:36:58.506Z,271
2018-09-29T07:37:59.086Z,256
2018-09-29T07:38:58.674Z,264
2018-09-29T07:39:58.423Z,257
2018-09-29T07:40:58.880Z,271
2018-09-29T07:41:58.464Z,275
2018-09-29T07:42:59.007Z,277
2018-09-29T07:43:58.754Z,268
2018-09-29T07:44:58.372Z,271
2018-09-29T07:45:58.899Z,251
2018-09-29T07:46:58.405Z,255
2018-09-29T07:47:59.064Z,239
2018-09-29T07:48:58.929Z,266
2018-09-29T07:49:58.688Z,266
2018-09-29T07:50:58.494Z,254
2018-09-29T07:51:59.330Z,238
2018-09-29T07:52:59.156Z,231
2018-09-29T07:53:58.883Z,235
2018-09-29T07:54:58.631Z,213
2018-09-29T07:56:19.713Z,206
2018-09-29T07:57:20.355Z,203
2018-09-29T07:58:20.296Z,201
2018-09-29T07:59:20.082Z,190
2018-09-29T08:00:41.430Z,233
2018-09-29T08:01:41.946Z,250
2018-09-29T08:02:41.641Z,266
2018-09-29T08:03:42.174Z,228
2018-09-29T08:04:41.999Z,179
2018-09-29T08:05:41.874Z,156
2018-09-29T08:06:41.363Z,136
2018-09-29T08:07:42.108Z,161
2018-09-29T08:08:41.536Z,138
2018-09-29T08:09:41.289Z,161
2018-09-29T08:11:03.066Z,168
2018-09-29T08:12:03.636Z,178
2018-09-29T08:13:03.266Z,184
2018-09-29T08:14:03.840Z,203
2018-09-29T08:15:03.515Z,182
2018-09-29T08:16:04.005Z,122
2018-09-29T08:17:03.789Z,96
2018-09-29T08:18:24.531Z,97
2018-09-29T08:19:24.971Z,113
2018-09-29T08:20:25.788Z,133
2018-09-29T08:21:25.241Z,149
2018-09-29T08:22:24.829Z,154
2018-09-29T08:23:25.514Z,206
2018-09-29T08:24:25.174Z,261
2018-09-29T08:25:46.425Z,275
2018-09-29T08:26:46.849Z,289
2018-09-29T08:27:47.615Z,304
2018-09-29T08:28:47.337Z,291
2018-09-29T08:29:46.932Z,321
2018-09-29T08:30:47.520Z,335
2018-09-29T08:31:47.943Z,305
2018-09-29T08:32:47.475Z,192
2018-09-29T08:33:46.994Z,162
2018-09-29T08:35:29.510Z,160
2018-09-29T08:36:30.009Z,252
2018-09-29T08:37:29.782Z,215
2018-09-29T08:38:30.502Z,127
2018-09-29T08:39:30.046Z,126
2018-09-29T08:40:29.477Z,216
2018-09-29T08:41:30.262Z,289
2018-09-29T08:42:29.992Z,317
2018-09-29T08:43:29.695Z,362
2018-09-29T08:44:30.516Z,370
2018-09-29T08:45:30.421Z,352
2018-09-29T08:46:30.194Z,354
2018-09-29T08:47:32.341Z,356
2018-09-29T08:48:30.193Z,358
2018-09-29T08:49:29.688Z,365
2018-09-29T08:50:30.290Z,383
2018-09-29T08:51:29.872Z,393
2018-09-29T08:52:29.587Z,345
2018-09-29T08:53:30.216Z,418
2018-09-29T08:54:30.169Z,411
2018-09-29T08:55:29.845Z,409
2018-09-29T08:56:29.850Z,411
2018-09-29T08:57:29.509Z,406
2018-09-29T08:58:30.822Z,397
2018-09-29T08:59:30.205Z,417
2018-09-29T09:00:30.819Z,430
2018-09-29T09:01:30.740Z,415
2018-09-29T09:02:30.461Z,400
2018-09-29T09:03:30.204Z,378
2018-09-29T09:04:51.423Z,374
2018-09-29T09:05:52.021Z,384
2018-09-29T09:07:13.177Z,410
2018-09-29T09:08:13.692Z,416
2018-09-29T09:09:13.383Z,419
2018-09-29T09:10:13.900Z,423
2018-09-29T09:11:13.453Z,408
2018-09-29T09:12:13.884Z,409
2018-09-29T09:13:13.197Z,413
2018-09-29T09:14:13.621Z,415
2018-09-29T09:15:13.345Z,418
2018-09-29T09:16:14.407Z,418
2018-09-29T09:17:52.333Z,426
2018-09-29T09:19:24.427Z,427
2018-09-29T09:20:57.777Z,367
2018-09-29T09:21:56.073Z,377
2018-09-29T09:22:56.133Z,388
2018-09-29T09:23:51.631Z,404
2018-09-29T09:24:52.774Z,420
2018-09-29T09:25:59.997Z,427
2018-09-29T09:27:02.223Z,416
2018-09-29T09:28:05.683Z,409
2018-09-29T09:30:08.305Z,381
2018-09-29T09:30:58.267Z,414
2018-09-29T09:32:00.018Z,423
2018-09-29T09:33:03.671Z,424
2018-09-29T09:35:09.008Z,460
2018-09-29T09:35:58.959Z,446
2018-09-29T09:36:45.963Z,423
2018-09-29T09:37:44.717Z,370
2018-09-29T09:38:44.579Z,348
2018-09-29T09:40:05.528Z,319
2018-09-29T09:41:06.225Z,340
2018-09-29T09:42:05.753Z,320
2018-09-29T09:43:06.612Z,408
2018-09-29T09:44:05.888Z,412
2018-09-29T09:45:05.463Z,414
2018-09-29T09:46:06.332Z,384
2018-09-29T09:47:05.900Z,407
2018-09-29T09:48:06.745Z,404
2018-09-29T09:49:06.219Z,413
2018-09-29T09:50:29.204Z,360
2018-09-29T09:51:29.905Z,345
2018-09-29T09:52:29.519Z,368
2018-09-29T09:53:30.239Z,382
2018-09-29T09:54:29.934Z,410
2018-09-29T09:55:29.490Z,424
2018-09-29T09:56:30.247Z,432
2018-09-29T09:57:29.981Z,436
2018-09-29T09:58:29.667Z,443
2018-09-29T09:59:29.437Z,447
2018-09-29T10:00:50.401Z,430
2018-09-29T10:02:12.431Z,460
2018-09-29T10:03:13.036Z,454
2018-09-29T10:04:12.520Z,467
2018-09-29T10:05:33.437Z,443
2018-09-29T10:06:34.378Z,381
2018-09-29T10:07:34.038Z,398
2018-09-29T10:08:33.465Z,426
2018-09-29T10:10:43.036Z,413
2018-09-29T10:11:43.741Z,404
2018-09-29T10:12:43.449Z,397
2018-09-29T10:13:44.005Z,438
2018-09-29T10:14:43.664Z,409
2018-09-29T10:15:43.084Z,422
2018-09-29T10:16:43.658Z,452
2018-09-29T10:18:07.251Z,454
2018-09-29T10:19:28.115Z,405
2018-09-29T10:20:28.697Z,175
2018-09-29T10:21:28.087Z,149
2018-09-29T10:22:28.664Z,347
2018-09-29T10:23:28.069Z,168
2018-09-29T10:24:28.630Z,133
2018-09-29T10:25:50.122Z,130
2018-09-29T10:26:50.637Z,134
2018-09-29T10:27:50.378Z,138
2018-09-29T10:28:50.484Z,139
2018-09-29T10:29:50.247Z,140
2018-09-29T10:30:50.039Z,137
2018-09-29T10:31:50.671Z,136
2018-09-29T10:32:50.139Z,137
2018-09-29T10:33:50.753Z,139
2018-09-29T10:34:50.359Z,140
2018-09-29T10:35:49.915Z,135
2018-09-29T10:36:50.462Z,172
2018-09-29T10:37:50.612Z,307
2018-09-29T10:39:11.637Z,484
2018-09-29T10:40:33.817Z,488
2018-09-29T10:41:34.538Z,481
2018-09-29T10:42:34.059Z,471
2018-09-29T10:43:56.008Z,230
2018-09-29T10:44:56.304Z,135
2018-09-29T10:45:57.131Z,117
2018-09-29T10:46:56.797Z,114
2018-09-29T10:47:56.274Z,127
2018-09-29T10:49:18.058Z,85
2018-09-29T10:50:39.723Z,82
2018-09-29T10:51:40.415Z,80
2018-09-29T10:52:39.861Z,80
2018-09-29T10:53:40.471Z,87
2018-09-29T10:54:39.975Z,90
2018-09-29T10:55:40.450Z,97
2018-09-29T10:56:39.918Z,106
2018-09-29T10:58:01.754Z,107
2018-09-29T10:59:02.437Z,109
2018-09-29T11:00:01.677Z,118
2018-09-29T11:01:23.579Z,120
2018-09-29T11:02:24.570Z,123
2018-09-29T11:03:45.244Z,131
2018-09-29T11:04:45.634Z,131
2018-09-29T11:05:45.934Z,146
2018-09-29T11:06:45.716Z,132
2018-09-29T11:07:46.133Z,165
2018-09-29T11:09:07.386Z,428
2018-09-29T11:10:08.020Z,501
2018-09-29T11:11:07.729Z,524
2018-09-29T11:12:07.565Z,155
2018-09-29T11:13:08.206Z,146
2018-09-29T11:14:29.513Z,140
2018-09-29T11:15:30.362Z,140
2018-09-29T11:16:29.885Z,143
2018-09-29T11:17:29.370Z,153
2018-09-29T11:18:29.821Z,202
2018-09-29T11:19:50.798Z,413
2018-09-29T11:21:34.863Z,508
2018-09-29T11:22:35.570Z,513
2018-09-29T11:23:35.214Z,536
2018-09-29T11:24:35.116Z,527
2018-09-29T11:25:56.435Z,494
2018-09-29T11:26:57.243Z,154
2018-09-29T11:27:57.156Z,177
2018-09-29T11:28:56.717Z,179
2018-09-29T11:29:57.323Z,255
2018-09-29T11:30:57.013Z,187
2018-09-29T11:31:56.745Z,510
2018-09-29T11:32:57.404Z,254
2018-09-29T11:33:56.958Z,447
2018-09-29T11:34:57.356Z,211
2018-09-29T11:35:56.940Z,166
2018-09-29T11:37:18.035Z,181
2018-09-29T11:38:18.409Z,239
2018-09-29T11:39:18.168Z,509
2018-09-29T11:40:18.824Z,515
2018-09-29T11:41:18.338Z,528
2018-09-29T11:42:18.830Z,438
2018-09-29T11:43:18.398Z,457
2018-09-29T11:44:18.095Z,130
2018-09-29T11:45:18.733Z,127
2018-09-29T11:46:39.805Z,128
2018-09-29T11:47:40.356Z,122
2018-09-29T11:48:40.225Z,122
2018-09-29T11:49:40.085Z,113
2018-09-29T11:51:23.696Z,108
2018-09-29T11:52:24.171Z,104
2018-09-29T11:53:23.942Z,104
2018-09-29T11:54:24.696Z,106
2018-09-29T11:55:24.300Z,104
2018-09-29T11:56:24.070Z,102
2018-09-29T11:57:24.436Z,98
2018-09-29T11:58:45.438Z,99
2018-09-29T11:59:46.172Z,100
2018-09-29T12:01:07.072Z,100
2018-09-29T12:02:07.545Z,104
2018-09-29T12:03:07.183Z,104
2018-09-29T12:04:07.983Z,104
2018-09-29T12:05:07.767Z,106
2018-09-29T12:06:07.497Z,107
2018-09-29T12:07:07.717Z,108
2018-09-29T12:08:07.449Z,113
2018-09-29T12:09:07.478Z,122
2018-09-29T12:10:08.270Z,132
2018-09-29T12:11:08.022Z,141
2018-09-29T12:12:07.706Z,150
2018-09-29T12:13:07.322Z,158
2018-09-29T12:14:08.141Z,167
2018-09-29T12:15:07.971Z,169
2018-09-29T12:16:07.522Z,165
2018-09-29T12:17:07.465Z,160
2018-09-29T12:18:07.034Z,152
2018-09-29T12:19:07.688Z,145
2018-09-29T12:20:07.442Z,133
2018-09-29T12:21:08.211Z,128
2018-09-29T12:22:08.061Z,131
2018-09-29T12:23:07.483Z,130
2018-09-29T12:24:07.117Z,128
2018-09-29T12:25:07.762Z,127
2018-09-29T12:26:07.315Z,131
2018-09-29T12:27:07.113Z,139
2018-09-29T12:28:29.058Z,147
2018-09-29T12:29:29.928Z,152
2018-09-29T12:30:29.440Z,154
2018-09-29T12:31:29.183Z,159
2018-09-29T12:32:51.160Z,158
2018-09-29T12:33:51.769Z,150
2018-09-29T12:34:51.302Z,146
2018-09-29T12:35:51.965Z,142
2018-09-29T12:36:51.637Z,144
2018-09-29T12:37:52.596Z,150
2018-09-29T12:38:52.442Z,160
2018-09-29T12:39:52.790Z,175
2018-09-29T12:40:51.357Z,284
2018-09-29T12:41:52.303Z,462
2018-09-29T12:42:52.149Z,432
2018-09-29T12:45:20.026Z,493
2018-09-29T12:46:20.669Z,567
2018-09-29T12:47:20.291Z,558
2018-09-29T12:48:20.906Z,490
2018-09-29T12:49:20.479Z,475
2018-09-29T12:50:21.161Z,379
2018-09-29T12:51:21.052Z,484
2018-09-29T12:52:41.959Z,229
2018-09-29T12:53:43.107Z,247
2018-09-29T12:55:03.888Z,320
2018-09-29T12:56:04.496Z,258
2018-09-29T12:57:25.282Z,458
2018-09-29T12:58:25.903Z,466
2018-09-29T12:59:25.738Z,470
2018-09-29T13:00:25.398Z,464
2018-09-29T13:01:25.803Z,164
2018-09-29T13:02:25.421Z,192
2018-09-29T13:03:25.944Z,169
2018-09-29T13:04:25.515Z,162
2018-09-29T13:05:25.854Z,163
2018-09-29T13:06:25.331Z,159
2018-09-29T13:07:47.424Z,191
2018-09-29T13:09:30.778Z,468
2018-09-29T13:10:31.189Z,477
2018-09-29T13:11:31.746Z,497
2018-09-29T13:12:52.980Z,403
2018-09-29T13:13:54.205Z,253
2018-09-29T13:14:53.885Z,428
2018-09-29T13:15:53.717Z,454
2018-09-29T13:16:53.629Z,313
2018-09-29T13:17:53.647Z,302
2018-09-29T13:18:53.228Z,294
2018-09-29T13:19:52.902Z,437
2018-09-29T13:20:53.471Z,461
2018-09-29T13:21:52.975Z,453
2018-09-29T13:22:53.999Z,453
2018-09-29T13:23:53.507Z,446
2018-09-29T13:25:14.348Z,449
2018-09-29T13:26:15.044Z,439
2018-09-29T13:27:14.539Z,422
2018-09-29T13:28:36.469Z,423
2018-09-29T13:29:37.070Z,422
2018-09-29T13:30:36.971Z,401
2018-09-29T13:31:37.008Z,400
2018-09-29T13:32:58.354Z,405
2018-09-29T13:34:19.993Z,404
2018-09-29T13:35:41.682Z,403
2018-09-29T13:36:42.270Z,392
2018-09-29T13:37:41.869Z,387
2018-09-29T13:38:42.564Z,377
2018-09-29T13:39:41.980Z,374
2018-09-29T13:40:42.761Z,382
2018-09-29T13:41:42.268Z,386
2018-09-29T13:42:41.937Z,385
2018-09-29T13:43:42.734Z,384
2018-09-29T13:44:42.240Z,375
2018-09-29T13:45:41.824Z,365
2018-09-29T13:46:42.254Z,356
2018-09-29T13:47:41.948Z,348
2018-09-29T13:48:42.508Z,343
2018-09-29T13:49:42.212Z,346
2018-09-29T13:50:41.958Z,357
2018-09-29T13:51:41.870Z,357
2018-09-29T13:52:42.499Z,340
2018-09-29T13:53:42.160Z,335
2018-09-29T13:54:43.439Z,331
2018-09-29T13:55:42.267Z,326
2018-09-29T13:56:41.891Z,328
2018-09-29T13:57:42.719Z,333
2018-09-29T13:58:42.531Z,321
2018-09-29T13:59:45.431Z,324
2018-09-29T14:00:42.258Z,341
2018-09-29T14:01:41.784Z,338
2018-09-29T14:02:42.326Z,333
2018-09-29T14:03:41.841Z,336
2018-09-29T14:04:43.132Z,331
2018-09-29T14:05:41.760Z,334
2018-09-29T14:06:42.124Z,324
2018-09-29T14:08:03.328Z,295
2018-09-29T14:09:03.864Z,280
2018-09-29T14:10:03.444Z,284
2018-09-29T14:11:03.952Z,280
2018-09-29T14:12:03.466Z,288
2018-09-29T14:13:03.869Z,302
2018-09-29T14:14:03.363Z,303
2018-09-29T14:15:04.261Z,288
2018-09-29T14:16:04.141Z,273
2018-09-29T14:17:04.266Z,282
2018-09-29T14:18:03.979Z,277
2018-09-29T14:19:03.255Z,278
2018-09-29T14:20:03.838Z,292
2018-09-29T14:21:03.596Z,294
2018-09-29T14:22:04.389Z,261
2018-09-29T14:23:04.054Z,250
2018-09-29T14:24:03.987Z,245
2018-09-29T14:25:03.541Z,239
2018-09-29T14:26:04.215Z,248
2018-09-29T14:27:03.885Z,248
2018-09-29T14:28:03.530Z,268
2018-09-29T14:29:04.367Z,268
2018-09-29T14:30:04.033Z,260
2018-09-29T14:31:03.743Z,250
2018-09-29T14:32:03.316Z,245
2018-09-29T14:33:25.355Z,238
2018-09-29T14:34:25.987Z,247
2018-09-29T14:35:46.917Z,234
2018-09-29T14:36:47.458Z,234
2018-09-29T14:37:46.964Z,233
2018-09-29T14:38:50.157Z,220
2018-09-29T14:39:50.374Z,214
2018-09-29T14:40:50.055Z,208
2018-09-29T14:41:48.208Z,197
2018-09-29T14:42:47.934Z,203
2018-09-29T14:44:30.245Z,201
2018-09-29T14:45:30.807Z,193
2018-09-29T14:46:30.513Z,187
2018-09-29T14:47:31.110Z,182
2018-09-29T14:48:30.641Z,182
2018-09-29T14:49:30.162Z,182
2018-09-29T14:50:53.883Z,180
2018-09-29T14:52:14.149Z,181
2018-09-29T14:53:14.893Z,178
2018-09-29T14:54:36.109Z,167
2018-09-29T14:55:36.614Z,163
2018-09-29T14:56:36.378Z,164
2018-09-29T14:57:37.015Z,162
2018-09-29T14:58:36.910Z,164
2018-09-29T14:59:57.869Z,165
2018-09-29T15:00:58.301Z,161
2018-09-29T15:01:57.957Z,151
2018-09-29T15:02:58.715Z,151
2018-09-29T15:03:58.607Z,142
2018-09-29T15:04:58.342Z,135
2018-09-29T15:05:58.849Z,140
2018-09-29T15:06:58.526Z,145
2018-09-29T15:08:19.593Z,151
2018-09-29T15:09:20.345Z,154
2018-09-29T15:10:20.205Z,154
2018-09-29T15:11:20.146Z,152
2018-09-29T15:12:19.673Z,149
2018-09-29T15:13:20.321Z,148
2018-09-29T15:14:20.036Z,144
2018-09-29T15:15:19.748Z,140
2018-09-29T15:16:19.538Z,136
2018-09-29T15:17:49.734Z,132
2018-09-29T15:18:50.324Z,134
2018-09-29T15:19:50.280Z,136
2018-09-29T15:21:11.227Z,131
2018-09-29T15:22:11.886Z,120
2018-09-29T15:23:33.056Z,123
2018-09-29T15:25:17.435Z,113
2018-09-29T15:26:17.183Z,102
2018-09-29T15:27:16.439Z,90
2018-09-29T15:28:38.264Z,60
2018-09-29T15:29:39.036Z,55
2018-09-29T15:30:38.335Z,58
2018-09-29T15:31:39.135Z,58
2018-09-29T15:32:38.437Z,58
2018-09-29T15:33:38.796Z,58
2018-09-29T15:34:38.073Z,57
2018-09-29T15:35:38.622Z,57
2018-09-29T15:36:38.199Z,56
2018-09-29T15:37:38.925Z,56
2018-09-29T15:39:23.350Z,54
2018-09-29T15:40:24.124Z,53
2018-09-29T15:41:24.119Z,53
2018-09-29T15:42:23.927Z,53
2018-09-29T15:43:23.884Z,53
2018-09-29T15:44:24.371Z,53